createdAt,value
2022-09-10T00:01:11.130Z,-69.4
2022-09-10T00:06:18.569Z,-70.0
2022-09-10T00:11:26.865Z,-69.3
2022-09-10T00:16:34.152Z,-67.9
2022-09-10T00:21:40.998Z,-68.9
2022-09-10T00:26:49.264Z,-69.1
2022-09-10T00:31:56.532Z,-69.0
2022-09-10T00:37:03.207Z,-69.4
2022-09-10T00:42:11.084Z,-69.3
2022-09-10T00:47:18.000Z,-68.80001
2022-09-10T00:52:25.754Z,-68.7
2022-09-10T00:57:34.188Z,-68.1
2022-09-10T01:02:40.889Z,-69.9
2022-09-10T01:07:47.497Z,-68.2
2022-09-10T01:12:55.338Z,-68.80001
2022-09-10T01:18:04.002Z,-69.0
2022-09-10T01:23:11.137Z,-69.5
2022-09-10T01:28:19.587Z,-68.80001
2022-09-10T01:33:28.053Z,-70.5
2022-09-10T01:38:36.675Z,-71.6
2022-09-10T01:43:45.153Z,-69.5
2022-09-10T01:48:53.465Z,-68.7
2022-09-10T01:53:59.905Z,-72.3
2022-09-10T01:59:07.743Z,-69.5
2022-09-10T02:04:15.600Z,-69.6
2022-09-10T02:09:22.782Z,-71.8
2022-09-10T02:14:30.611Z,-70.4
2022-09-10T02:19:37.815Z,-69.4
2022-09-10T02:24:45.452Z,-70.6
2022-09-10T02:29:53.401Z,-69.4
2022-09-10T02:35:00.476Z,-68.6
2022-09-10T02:40:08.819Z,-69.9
2022-09-10T02:45:17.349Z,-70.1
2022-09-10T02:55:01.867Z,-68.9
2022-09-10T03:00:07.340Z,-70.1
2022-09-10T03:05:15.031Z,-70.0
2022-09-10T03:10:21.648Z,-69.3
2022-09-10T03:15:28.845Z,-69.5
2022-09-10T03:20:37.045Z,-69.3
2022-09-10T03:25:45.406Z,-69.5
2022-09-10T03:30:53.018Z,-69.4
2022-09-10T03:36:01.393Z,-70.0
2022-09-10T03:41:09.204Z,-69.4
2022-09-10T03:46:15.921Z,-69.3
2022-09-10T03:51:30.000Z,-69.2
2022-09-10T03:56:37.345Z,-69.5
2022-09-10T04:01:43.948Z,-68.6
2022-09-10T04:06:50.481Z,-69.3
2022-09-10T04:11:58.916Z,-69.0
2022-09-10T04:17:06.134Z,-69.3
2022-09-10T04:22:13.971Z,-69.4
2022-09-10T04:27:22.328Z,-69.2
2022-09-10T04:32:30.193Z,-69.4
2022-09-10T04:37:38.445Z,-69.0
2022-09-10T04:42:45.365Z,-69.8
2022-09-10T04:47:53.896Z,-70.2
2022-09-10T04:53:01.832Z,-70.5
2022-09-10T04:58:10.092Z,-70.2
2022-09-10T05:03:17.351Z,-69.2
2022-09-10T05:08:40.476Z,-68.9
2022-09-10T05:13:48.238Z,-69.5
2022-09-10T05:18:56.725Z,-69.7
2022-09-10T05:24:04.083Z,-70.3
2022-09-10T05:29:12.464Z,-71.4
2022-09-10T05:34:20.374Z,-71.4
2022-09-10T05:39:27.636Z,-70.7
2022-09-10T05:44:35.302Z,-70.8
2022-09-10T05:49:44.201Z,-69.4
2022-09-10T05:54:51.762Z,-71.9
2022-09-10T05:59:59.532Z,-70.7
2022-09-10T06:05:08.559Z,-70.8
2022-09-10T06:10:15.893Z,-72.3
2022-09-10T06:15:23.111Z,-71.2
2022-09-10T06:20:30.296Z,-70.7
2022-09-10T06:25:37.702Z,-71.4
2022-09-10T06:30:47.766Z,-71.6
2022-09-10T06:35:54.816Z,-69.8
2022-09-10T06:41:03.459Z,-70.8
2022-09-10T06:46:17.822Z,-70.8
2022-09-10T06:51:25.922Z,-72.8
2022-09-10T06:56:33.597Z,-71.30001
2022-09-10T07:01:41.777Z,-70.4
2022-09-10T07:06:48.561Z,-67.8
2022-09-10T07:11:55.733Z,-67.8
2022-09-10T07:17:03.616Z,-66.7
2022-09-10T07:22:11.149Z,-66.7
2022-09-10T07:27:19.311Z,-66.9
2022-09-10T07:32:27.137Z,-66.7
2022-09-10T07:37:35.001Z,-66.9
2022-09-10T07:42:43.115Z,-67.1
2022-09-10T07:47:49.816Z,-67.8
2022-09-10T07:52:57.212Z,-67.5
2022-09-10T07:58:05.417Z,-66.8
2022-09-10T08:03:15.969Z,-67.1
2022-09-10T08:08:23.714Z,-67.0
2022-09-10T08:13:31.139Z,-67.6
2022-09-10T08:18:40.094Z,-67.3
2022-09-10T08:23:49.924Z,-65.3
2022-09-10T08:28:58.059Z,-67.1
2022-09-10T08:34:05.050Z,-67.0
2022-09-10T08:39:12.212Z,-66.5
2022-09-10T08:44:18.814Z,-67.8
2022-09-10T08:49:26.651Z,-67.0
2022-09-10T08:54:33.831Z,-66.4
2022-09-10T08:59:41.450Z,-66.8
2022-09-10T09:04:48.219Z,-66.9
2022-09-10T09:09:56.097Z,-66.30001
2022-09-10T09:15:03.334Z,-66.6
2022-09-10T09:20:11.496Z,-66.0
2022-09-10T09:25:18.951Z,-65.9
2022-09-10T09:30:27.601Z,-65.7
2022-09-10T09:35:36.141Z,-66.0
2022-09-10T09:40:44.466Z,-67.2
2022-09-10T09:45:59.117Z,-65.9
2022-09-10T09:51:06.549Z,-66.2
2022-09-10T09:56:14.501Z,-65.5
2022-09-10T10:01:22.098Z,-65.4
2022-09-10T10:06:30.158Z,-65.3
2022-09-10T10:11:37.213Z,-66.7
2022-09-10T10:16:44.379Z,-66.7
2022-09-10T10:21:51.637Z,-65.2
2022-09-10T10:26:59.503Z,-65.2
2022-09-10T10:32:07.187Z,-65.7
2022-09-10T10:37:15.357Z,-64.9
2022-09-10T10:42:22.940Z,-65.2
2022-09-10T10:47:30.200Z,-65.4
2022-09-10T10:52:38.519Z,-65.0
2022-09-10T10:57:45.776Z,-65.2
2022-09-10T11:02:53.662Z,-65.4
2022-09-10T11:08:31.644Z,-66.7
2022-09-10T11:08:31.674Z,-66.7
2022-09-10T11:09:32.631Z,-66.2
2022-09-10T11:14:38.943Z,-64.6
2022-09-10T11:19:47.376Z,-66.7
2022-09-10T11:24:54.942Z,-65.4
2022-09-10T11:30:02.463Z,-65.7
2022-09-10T11:35:09.195Z,-65.8
2022-09-10T11:40:17.971Z,-65.5
2022-09-10T11:45:24.747Z,-65.9
2022-09-10T11:50:34.477Z,-65.2
2022-09-10T11:55:41.659Z,-66.1
2022-09-10T12:00:48.863Z,-64.8
2022-09-10T12:05:57.105Z,-65.3
2022-09-10T12:11:03.903Z,-65.6
2022-09-10T12:16:10.877Z,-66.2
2022-09-10T12:21:18.875Z,-65.6
2022-09-10T12:26:27.567Z,-65.9
2022-09-10T12:31:35.325Z,-66.0
2022-09-10T12:36:42.703Z,-66.7
2022-09-10T12:41:50.688Z,-66.4
2022-09-10T12:46:58.826Z,-65.8
2022-09-10T12:52:06.205Z,-65.8
2022-09-10T12:57:12.701Z,-66.5
2022-09-10T13:02:19.743Z,-66.7
2022-09-10T13:07:27.575Z,-66.6
2022-09-10T13:12:34.815Z,-65.7
2022-09-10T13:17:43.774Z,-64.5
2022-09-10T13:22:51.554Z,-64.7
2022-09-10T13:27:58.916Z,-65.2
2022-09-10T13:33:06.735Z,-64.4
2022-09-10T13:38:13.975Z,-65.9
2022-09-10T13:43:21.290Z,-65.3
2022-09-10T13:48:29.032Z,-65.0
2022-09-10T13:53:36.855Z,-65.2
2022-09-10T13:58:43.428Z,-64.8
2022-09-10T14:03:52.294Z,-65.0
2022-09-10T14:09:00.890Z,-65.0
2022-09-10T14:14:08.925Z,-65.0
2022-09-10T14:19:17.324Z,-65.0
2022-09-10T14:24:24.549Z,-65.3
2022-09-10T14:29:32.280Z,-65.8
2022-09-10T14:34:40.217Z,-64.9
2022-09-10T14:39:46.987Z,-65.0
2022-09-10T14:44:55.499Z,-66.5
2022-09-10T14:50:01.846Z,-66.0
2022-09-10T14:55:10.806Z,-65.4
2022-09-10T15:00:18.856Z,-65.8
2022-09-10T15:05:26.312Z,-66.30001
2022-09-10T15:10:34.777Z,-65.2
2022-09-10T15:15:41.047Z,-65.8
2022-09-10T15:20:48.895Z,-64.5
2022-09-10T15:25:56.443Z,-67.5
2022-09-10T15:31:04.188Z,-66.0
2022-09-10T15:36:12.778Z,-65.2
2022-09-10T15:41:21.035Z,-65.4
2022-09-10T15:46:28.326Z,-66.0
2022-09-10T15:51:35.258Z,-66.0
2022-09-10T15:56:43.244Z,-66.2
2022-09-10T16:01:51.336Z,-66.0
2022-09-10T16:06:59.421Z,-66.8
2022-09-10T16:12:07.721Z,-65.6
2022-09-10T16:17:16.547Z,-66.0
2022-09-10T16:22:24.185Z,-66.8
2022-09-10T16:27:33.849Z,-65.8
2022-09-10T16:32:40.267Z,-65.7
2022-09-10T16:37:48.414Z,-65.3
2022-09-10T16:42:56.345Z,-65.9
2022-09-10T16:48:03.406Z,-65.9
2022-09-10T16:53:11.423Z,-66.30001
2022-09-10T16:58:18.863Z,-65.1
2022-09-10T17:03:26.270Z,-66.30001
2022-09-10T17:08:33.504Z,-65.2
2022-09-10T17:13:41.725Z,-66.1
2022-09-10T17:18:48.580Z,-66.2
2022-09-10T17:23:55.098Z,-65.6
2022-09-10T17:29:02.286Z,-65.1
2022-09-10T17:34:09.735Z,-66.2
2022-09-10T17:39:18.089Z,-66.2
2022-09-10T17:44:26.344Z,-65.7
2022-09-10T17:49:34.347Z,-65.2
2022-09-10T17:54:42.833Z,-65.8
2022-09-10T17:59:51.856Z,-65.6
2022-09-10T18:04:59.187Z,-65.9
2022-09-10T18:10:06.865Z,-65.9
2022-09-10T18:15:14.491Z,-65.8
2022-09-10T18:20:21.751Z,-66.1
2022-09-10T18:25:29.211Z,-66.4
2022-09-10T18:30:35.742Z,-66.1
2022-09-10T18:35:43.329Z,-65.4
2022-09-10T18:40:51.435Z,-66.1
2022-09-10T18:45:59.828Z,-66.5
2022-09-10T18:51:07.821Z,-66.0
2022-09-10T18:56:15.160Z,-66.2
2022-09-10T19:01:22.731Z,-65.6
2022-09-10T19:06:30.859Z,-66.0
2022-09-10T19:11:38.455Z,-66.4
2022-09-10T19:16:46.294Z,-66.4
2022-09-10T19:21:54.647Z,-66.5
2022-09-10T19:27:01.570Z,-66.7
2022-09-10T19:32:08.516Z,-65.5
2022-09-10T19:37:16.525Z,-66.2
2022-09-10T19:42:24.862Z,-65.8
2022-09-10T19:47:32.770Z,-65.5
2022-09-10T19:52:39.933Z,-66.2
2022-09-10T19:57:48.087Z,-66.4
2022-09-10T20:02:56.090Z,-65.8
2022-09-10T20:08:03.452Z,-66.1
2022-09-10T20:13:11.125Z,-65.6
2022-09-10T20:18:18.715Z,-65.6
2022-09-10T20:23:26.740Z,-65.8
2022-09-10T20:28:34.782Z,-65.9
2022-09-10T20:33:42.818Z,-66.0
2022-09-10T20:38:50.244Z,-66.30001
2022-09-10T20:43:57.179Z,-66.6
2022-09-10T20:49:04.302Z,-65.3
2022-09-10T20:54:11.445Z,-65.8
2022-09-10T20:59:20.088Z,-65.8
2022-09-10T21:04:28.664Z,-67.1
2022-09-10T21:09:37.320Z,-66.8
2022-09-10T21:14:45.267Z,-65.6
2022-09-10T21:20:07.982Z,-66.8
2022-09-10T21:25:14.460Z,-65.4
2022-09-10T21:30:22.886Z,-66.30001
2022-09-10T21:35:30.909Z,-65.8
2022-09-10T21:40:37.977Z,-66.1
2022-09-10T21:45:45.816Z,-65.7
2022-09-10T21:50:52.379Z,-65.5
2022-09-10T21:56:00.392Z,-65.6
2022-09-10T22:01:08.606Z,-66.6
2022-09-10T22:06:16.574Z,-65.4
2022-09-10T22:11:24.297Z,-66.0
2022-09-10T22:16:31.044Z,-65.5
2022-09-10T22:21:38.814Z,-65.2
2022-09-10T22:26:46.705Z,-65.8
2022-09-10T22:31:53.908Z,-65.7
2022-09-10T22:37:01.105Z,-66.4
2022-09-10T22:42:08.820Z,-65.9
2022-09-10T22:47:18.261Z,-66.9
2022-09-10T22:52:43.128Z,-67.3
2022-09-10T22:57:50.323Z,-65.3
2022-09-10T23:02:57.529Z,-65.7
2022-09-10T23:08:04.096Z,-65.9
2022-09-10T23:13:10.845Z,-65.7
2022-09-10T23:18:18.457Z,-66.4
2022-09-10T23:23:26.810Z,-65.6
2022-09-10T23:28:34.169Z,-65.7
2022-09-10T23:33:40.725Z,-65.3
2022-09-10T23:38:48.748Z,-64.1
2022-09-10T23:43:57.227Z,-64.9
2022-09-10T23:49:05.452Z,-64.8
2022-09-10T23:54:13.110Z,-64.8
2022-09-10T23:59:20.996Z,-65.0
